Time;durP1;ratioP1;P1;durP2;ratioP2;P2;SDS_P1;SDS_P2;PMS_P1;PMS_P2;Temp;Humidity;BMP_temperature;BMP_pressure;BME280_temperature;BME280_humidity;BME280_pressure;Samples;Min_cycle;Max_cycle;Signal;HPM_P1;HPM_P2
2021/08/11 00:01:43;;;;;;;4.03;3.27;;;;;;;17.68;62.68;97344.74;126930;1095;62600;-52
2021/08/11 00:04:10;;;;;;;3.60;2.80;;;;;;;17.67;62.65;97342.27;126912;1095;62642;-50
2021/08/11 00:06:37;;;;;;;4.40;3.40;;;;;;;17.65;62.89;97338.94;126954;1095;62633;-49
2021/08/11 00:09:04;;;;;;;4.37;3.60;;;;;;;17.63;62.72;97339.10;126927;1093;62610;-51
2021/08/11 00:11:31;;;;;;;4.00;3.47;;;;;;;17.61;62.81;97335.80;126869;1094;62990;-49
2021/08/11 00:13:59;;;;;;;3.90;3.33;;;;;;;17.60;62.98;97335.94;126902;1093;62616;-49
2021/08/11 00:16:26;;;;;;;3.83;3.30;;;;;;;17.57;62.86;97337.09;126982;1095;62612;-49
2021/08/11 00:18:54;;;;;;;4.07;3.07;;;;;;;17.55;62.93;97333.77;126974;1095;62610;-49
2021/08/11 00:21:22;;;;;;;3.60;3.03;;;;;;;17.53;63.08;97333.11;126938;1095;62763;-50
2021/08/11 00:23:49;;;;;;;4.03;3.17;;;;;;;17.50;63.18;97334.23;126919;1092;62609;-48
2021/08/11 00:26:16;;;;;;;4.33;3.30;;;;;;;17.49;63.24;97332.58;126964;1093;62607;-49
2021/08/11 00:28:43;;;;;;;3.90;3.27;;;;;;;17.48;63.06;97330.11;126897;1095;62553;-49
2021/08/11 00:31:10;;;;;;;4.10;3.40;;;;;;;17.47;63.31;97331.07;126891;1095;62706;-48
2021/08/11 00:33:36;;;;;;;4.03;3.20;;;;;;;17.45;63.33;97330.41;127000;1095;62556;-49
2021/08/11 00:36:04;;;;;;;4.13;3.13;;;;;;;17.42;63.20;97325.42;127095;1093;62603;-50
2021/08/11 00:38:31;;;;;;;4.10;3.23;;;;;;;17.41;63.40;97329.06;126961;1095;62601;-49
2021/08/11 00:40:58;;;;;;;4.67;3.33;;;;;;;17.37;63.50;97319.78;126931;1095;62617;-49
2021/08/11 00:43:24;;;;;;;5.10;3.70;;;;;;;17.34;63.44;97320.95;127064;1093;62589;-51
2021/08/11 00:45:52;;;;;;;4.40;3.40;;;;;;;17.33;63.49;97326.36;126958;1095;62742;-49
2021/08/11 00:48:19;;;;;;;4.57;3.23;;;;;;;17.31;63.64;97321.25;126899;1095;62604;-49
2021/08/11 00:50:46;;;;;;;4.70;3.50;;;;;;;17.29;63.58;97329.34;126929;1095;62993;-48
2021/08/11 00:53:13;;;;;;;3.60;3.00;;;;;;;17.27;63.71;97320.72;126876;1095;62681;-48
2021/08/11 00:55:40;;;;;;;4.13;3.10;;;;;;;17.26;63.77;97320.89;127008;1095;62661;-48
2021/08/11 00:58:11;;;;;;;4.67;3.17;;;;;;;17.23;63.73;97321.19;126880;1095;62766;-50
2021/08/11 01:00:43;;;;;;;4.33;3.57;;;;;;;17.21;63.66;97316.07;127047;1093;62586;-51
2021/08/11 01:03:30;;;;;;;3.80;3.40;;;;;;;17.19;63.83;97318.02;126950;1095;62606;-49
2021/08/11 01:06:02;;;;;;;4.00;3.33;;;;;;;17.15;63.77;97311.42;126973;1095;62684;-53
2021/08/11 01:08:29;;;;;;;4.03;3.23;;;;;;;17.11;63.80;97317.98;127130;1095;62609;-53
2021/08/11 01:10:57;;;;;;;4.73;3.40;;;;;;;17.10;63.83;97318.98;127099;1095;62609;-55
2021/08/11 01:13:25;;;;;;;3.83;3.43;;;;;;;17.08;64.08;97320.10;126940;1095;62805;-50
2021/08/11 01:15:52;;;;;;;4.47;3.50;;;;;;;17.05;63.98;97314.16;126853;1095;62606;-50
2021/08/11 01:18:19;;;;;;;3.90;3.23;;;;;;;17.04;64.09;97314.30;126937;1094;62600;-49
2021/08/11 01:21:10;;;;;;;3.60;3.20;;;;;;;17.01;64.02;97309.34;126897;1095;62611;-50
2021/08/11 01:23:43;;;;;;;3.70;3.27;;;;;;;16.98;64.14;97304.36;126934;1093;62585;-52
2021/08/11 01:26:14;;;;;;;3.63;3.07;;;;;;;16.97;64.16;97310.63;126883;1095;62611;-51
2021/08/11 01:29:11;;;;;;;4.50;3.47;;;;;;;16.93;64.19;97299.54;126934;1093;62585;-50
2021/08/11 01:32:08;;;;;;;3.70;3.27;;;;;;;16.91;64.22;97308.58;126954;1095;62581;-50
2021/08/11 01:34:43;;;;;;;4.03;3.60;;;;;;;16.88;64.38;97306.27;126875;1095;62693;-50
2021/08/11 01:37:12;;;;;;;3.97;3.20;;;;;;;16.84;64.32;97308.38;126942;1095;62614;-50
2021/08/11 01:39:42;;;;;;;;;;;;;;;16.81;65.33;97303.39;126994;1093;62980;-49
2021/08/11 01:42:14;;;;;;;4.20;3.60;;;;;;;16.78;64.45;97299.27;127067;1095;62600;-51
2021/08/11 01:44:50;;;;;;;4.37;3.27;;;;;;;16.76;64.36;97306.49;127102;1095;62569;-49
2021/08/11 01:47:20;;;;;;;5.37;3.73;;;;;;;16.74;64.62;97303.19;127088;1095;62741;-49
2021/08/11 01:49:47;;;;;;;4.50;3.07;;;;;;;16.73;64.45;97301.54;127003;1095;62749;-49
2021/08/11 01:52:14;;;;;;;4.67;3.50;;;;;;;16.69;64.58;97299.33;126802;1095;62659;-48
2021/08/11 01:54:42;;;;;;;4.97;3.13;;;;;;;16.68;64.64;97300.28;126892;1095;62607;-49
2021/08/11 01:57:10;;;;;;;4.13;3.40;;;;;;;16.68;64.58;97297.64;126912;1093;62629;-50
2021/08/11 01:59:37;;;;;;;4.83;3.47;;;;;;;16.67;64.58;97294.17;126939;1095;62585;-49
2021/08/11 02:02:05;;;;;;;3.60;3.20;;;;;;;16.65;64.49;97293.52;126950;1095;62985;-49
2021/08/11 02:04:32;;;;;;;3.13;2.83;;;;;;;16.64;64.66;97297.14;126943;1095;62885;-50
2021/08/11 02:06:59;;;;;;;3.87;3.30;;;;;;;16.63;64.49;97294.63;126943;1095;62612;-49
2021/08/11 02:09:27;;;;;;;4.17;3.53;;;;;;;16.61;64.65;97297.44;126867;1095;62613;-50
2021/08/11 02:11:55;;;;;;;3.97;3.10;;;;;;;16.60;64.49;97301.06;126967;1095;62674;-49
2021/08/11 02:14:22;;;;;;;4.10;3.45;;;;;;;16.59;64.46;97304.66;126916;1095;62660;-49
2021/08/11 02:16:48;;;;;;;4.23;3.83;;;;;;;16.59;64.71;97307.30;126962;1095;62642;-51
2021/08/11 02:19:16;;;;;;;4.03;3.50;;;;;;;16.57;64.53;97314.55;127090;1094;62600;-48
2021/08/11 02:21:43;;;;;;;3.87;2.73;;;;;;;16.55;64.70;97306.80;126964;1095;62600;-49
2021/08/11 02:24:10;;;;;;;3.57;3.03;;;;;;;16.54;64.67;97318.30;126987;1093;62680;-47
2021/08/11 02:26:52;;;;;;;4.27;3.07;;;;;;;16.52;64.80;97311.54;126906;1095;62760;-49
2021/08/11 02:29:42;;;;;;;3.90;3.10;;;;;;;16.50;64.84;97316.98;126912;1095;62626;-49
2021/08/11 02:32:18;;;;;;;3.80;3.00;;;;;;;16.48;64.66;97318.92;126918;1093;62604;-47
2021/08/11 02:34:53;;;;;;;3.90;3.10;;;;;;;16.47;64.61;97319.08;126931;1095;62600;-48
2021/08/11 02:37:23;;;;;;;4.50;3.45;;;;;;;16.46;64.78;97320.06;126892;1095;62674;-48
2021/08/11 02:40:04;;;;;;;4.50;3.80;;;;;;;16.45;64.72;97329.77;126950;1093;62733;-48
2021/08/11 02:42:40;;;;;;;4.10;3.57;;;;;;;16.45;64.70;97321.02;126871;1095;62882;-52
2021/08/11 02:45:10;;;;;;;4.30;3.07;;;;;;;16.42;64.67;97329.26;126938;1093;62601;-48
2021/08/11 02:47:36;;;;;;;;;;;;;;;16.42;65.58;97330.08;126914;1095;62645;-48
2021/08/11 02:50:05;;;;;;;4.50;3.27;;;;;;;16.40;64.86;97326.75;126987;1095;62751;-48
2021/08/11 02:52:32;;;;;;;4.30;3.43;;;;;;;16.38;64.92;97333.99;127081;1095;63047;-50
2021/08/11 02:54:59;;;;;;;4.07;3.37;;;;;;;16.37;64.98;97327.06;127078;1095;62639;-51
2021/08/11 02:57:25;;;;;;;4.23;3.50;;;;;;;16.36;64.98;97329.83;127071;1095;62987;-49
2021/08/11 02:59:52;;;;;;;4.10;3.20;;;;;;;16.35;64.87;97328.18;126875;1095;62609;-51
2021/08/11 03:02:19;;;;;;;3.57;3.27;;;;;;;16.34;64.88;97321.25;126861;1095;62700;-49
2021/08/11 03:04:46;;;;;;;4.37;3.47;;;;;;;16.32;64.90;97308.23;126930;1095;62586;-53
2021/08/11 03:07:13;;;;;;;4.47;3.60;;;;;;;16.30;65.00;97299.62;127060;1095;62612;-50
2021/08/11 03:09:40;;;;;;;4.00;2.90;;;;;;;16.29;64.82;97309.34;126914;1093;62993;-50
2021/08/11 03:12:11;;;;;;;3.45;2.90;;;;;;;16.28;65.02;97312.97;126918;1095;62996;-52
2021/08/11 03:14:40;;;;;;;4.07;3.23;;;;;;;16.26;64.96;97306.98;127086;1095;62735;-49
2021/08/11 03:17:09;;;;;;;3.63;3.20;;;;;;;16.26;64.87;97309.63;127069;1095;62716;-52
2021/08/11 03:19:36;;;;;;;3.97;3.07;;;;;;;16.26;64.83;97308.80;127049;1095;62597;-51
2021/08/11 03:22:04;;;;;;;3.40;2.63;;;;;;;16.25;64.94;97309.79;126912;1095;62589;-49
2021/08/11 03:24:31;;;;;;;3.80;3.23;;;;;;;16.25;64.93;97313.25;126999;1093;62616;-49
2021/08/11 03:26:58;;;;;;;5.27;4.03;;;;;;;16.25;64.99;97307.98;127070;1095;62767;-51
2021/08/11 03:29:25;;;;;;;4.73;4.07;;;;;;;16.21;64.77;97303.97;127116;1095;62712;-61
2021/08/11 03:31:52;;;;;;;4.60;4.13;;;;;;;16.19;64.77;97305.95;126978;1095;62678;-53
2021/08/11 03:34:19;;;;;;;7.20;6.50;;;;;;;16.19;65.83;97316.50;126923;1093;62556;-58
2021/08/11 03:36:45;;;;;;;6.03;5.00;;;;;;;16.21;66.67;97317.16;127029;1095;62610;-51
2021/08/11 03:39:12;;;;;;;6.93;6.23;;;;;;;16.25;67.44;97321.16;127147;1095;62652;-58
2021/08/11 03:41:39;;;;;;;6.63;5.93;;;;;;;16.31;67.26;97322.37;127037;1095;62703;-60
2021/08/11 03:44:06;;;;;;;7.70;6.65;;;;;;;16.39;67.90;97329.55;127107;1095;62626;-60
2021/08/11 03:46:33;;;;;;;6.63;5.93;;;;;;;16.46;67.68;97325.34;127014;1093;62581;-58
2021/08/11 03:49:00;;;;;;;7.30;5.60;;;;;;;16.51;67.83;97326.55;127059;1093;62595;-61
2021/08/11 03:51:27;;;;;;;7.10;6.30;;;;;;;16.59;68.07;97331.05;126994;1095;62766;-61
2021/08/11 03:53:55;;;;;;;6.33;5.27;;;;;;;16.66;68.26;97337.39;127091;1093;62603;-60
2021/08/11 03:56:22;;;;;;;7.05;6.20;;;;;;;16.74;67.97;97334.04;126989;1093;62612;-60
2021/08/11 03:58:49;;;;;;;8.07;6.70;;;;;;;16.82;68.48;97336.72;126975;1095;62549;-59
2021/08/11 04:01:19;;;;;;;7.60;5.93;;;;;;;16.88;67.93;97335.31;127069;1095;62664;-61
2021/08/11 04:03:46;;;;;;;7.27;6.20;;;;;;;16.94;67.09;97338.16;127046;1093;62676;-58
2021/08/11 04:06:13;;;;;;;5.80;5.20;;;;;;;17.00;67.29;97339.34;127137;1095;62751;-50
2021/08/11 04:08:40;;;;;;;7.07;5.43;;;;;;;17.05;66.96;97332.65;127167;1093;62604;-55
2021/08/11 04:11:07;;;;;;;6.47;5.73;;;;;;;17.09;66.69;97338.42;126981;1095;62553;-53
2021/08/11 04:13:34;;;;;;;5.60;4.13;;;;;;;17.15;66.94;97337.83;126921;1095;62606;-51
2021/08/11 04:16:01;;;;;;;6.93;6.07;;;;;;;17.21;66.83;97336.38;127016;1095;62578;-52
2021/08/11 04:18:28;;;;;;;7.53;5.47;;;;;;;17.28;66.94;97332.94;126960;1093;62814;-59
2021/08/11 04:20:55;;;;;;;7.70;6.50;;;;;;;17.35;67.34;97333.16;126929;1093;62622;-50
2021/08/11 04:23:22;;;;;;;7.15;5.65;;;;;;;17.43;66.60;97335.04;126998;1093;62556;-60
2021/08/11 04:25:49;;;;;;;5.77;4.63;;;;;;;17.51;66.54;97327.13;126953;1093;62626;-57
2021/08/11 04:28:16;;;;;;;5.60;5.00;;;;;;;17.60;66.34;97334.12;126965;1093;62688;-52
2021/08/11 04:30:43;;;;;;;6.80;5.10;;;;;;;17.68;65.39;97328.88;127013;1095;62604;-55
2021/08/11 04:33:10;;;;;;;5.73;5.10;;;;;;;17.76;65.11;97331.60;126945;1095;62620;-59
2021/08/11 04:35:40;;;;;;;4.97;4.03;;;;;;;17.83;64.88;97330.95;127106;1093;63006;-56
2021/08/11 04:38:07;;;;;;;4.53;3.70;;;;;;;17.89;64.49;97330.34;127075;1093;62636;-59
2021/08/11 04:40:35;;;;;;;4.60;3.90;;;;;;;17.95;63.86;97334.98;127101;1095;62601;-55
2021/08/11 04:43:03;;;;;;;5.20;3.77;;;;;;;18.00;63.41;97341.45;126977;1093;62745;-60
2021/08/11 04:45:30;;;;;;;5.67;3.53;;;;;;;18.06;63.26;97338.15;126924;1093;62556;-60
2021/08/11 04:47:57;;;;;;;5.43;3.37;;;;;;;18.13;63.22;97332.23;126948;1095;62654;-48
2021/08/11 04:50:24;;;;;;;5.00;3.53;;;;;;;18.17;62.82;97339.70;127011;1095;62549;-60
2021/08/11 04:52:51;;;;;;;5.17;3.87;;;;;;;18.24;63.33;97339.86;126902;1092;62552;-58
2021/08/11 04:55:18;;;;;;;4.47;3.60;;;;;;;18.32;62.58;97332.78;126921;1093;62622;-60
2021/08/11 04:57:45;;;;;;;4.83;3.50;;;;;;;18.38;62.32;97343.70;126981;1095;62605;-60
2021/08/11 05:00:12;;;;;;;4.77;3.90;;;;;;;18.44;62.37;97350.98;127051;1095;62557;-55
2021/08/11 05:02:39;;;;;;;4.23;3.57;;;;;;;18.51;62.25;97344.89;127156;1095;62581;-59
2021/08/11 05:05:07;;;;;;;6.00;3.70;;;;;;;18.59;62.06;97346.73;126869;1095;62691;-60
2021/08/11 05:07:34;;;;;;;5.13;3.63;;;;;;;18.66;61.67;97350.37;127364;1095;62773;-58
2021/08/11 05:10:01;;;;;;;5.93;4.07;;;;;;;18.73;61.57;97340.82;127003;1093;62604;-57
2021/08/11 05:12:29;;;;;;;5.57;3.67;;;;;;;18.80;61.46;97351.57;127074;1095;62623;-56
2021/08/11 05:14:57;;;;;;;4.33;3.40;;;;;;;18.86;61.12;97350.08;126993;1094;62626;-57
2021/08/11 05:17:24;;;;;;;3.77;3.37;;;;;;;18.92;60.70;97344.14;127089;1095;62585;-54
2021/08/11 05:19:52;;;;;;;3.77;3.23;;;;;;;18.95;60.38;97344.64;127009;1095;62693;-57
2021/08/11 05:22:20;;;;;;;4.07;3.27;;;;;;;19.00;60.23;97344.97;127042;1093;62604;-57
2021/08/11 05:24:47;;;;;;;4.27;3.47;;;;;;;19.04;59.98;97348.95;126958;1093;62572;-58
2021/08/11 05:27:14;;;;;;;3.87;3.30;;;;;;;19.08;59.81;97349.42;126972;1093;62601;-59
2021/08/11 05:29:42;;;;;;;4.03;3.37;;;;;;;19.13;59.66;97348.92;127111;1095;62694;-55
2021/08/11 05:32:09;;;;;;;5.60;3.37;;;;;;;19.18;59.53;97350.10;126991;1095;62713;-58
2021/08/11 05:34:36;;;;;;;4.20;3.10;;;;;;;19.23;59.48;97347.77;127026;1095;62643;-59
2021/08/11 05:37:03;;;;;;;5.67;3.70;;;;;;;19.31;59.50;97353.04;127046;1093;62620;-55
2021/08/11 05:39:30;;;;;;;4.77;3.40;;;;;;;19.41;59.38;97350.20;126974;1093;62601;-60
2021/08/11 05:41:57;;;;;;;3.70;3.17;;;;;;;19.49;59.22;97357.33;127226;1092;62572;-61
2021/08/11 05:44:24;;;;;;;5.97;3.13;;;;;;;19.57;58.84;97358.14;127024;1095;62813;-62
2021/08/11 05:46:51;;;;;;;4.37;3.10;;;;;;;19.66;58.72;97353.68;126939;1095;62633;-61
2021/08/11 05:49:18;;;;;;;4.77;2.80;;;;;;;19.75;58.73;97362.45;126931;1095;62626;-62
2021/08/11 05:51:45;;;;;;;4.17;3.00;;;;;;;19.84;58.61;97356.94;126857;1095;62664;-61
2021/08/11 05:54:13;;;;;;;5.47;3.50;;;;;;;19.93;58.35;97365.70;126889;1095;62725;-62
2021/08/11 05:56:40;;;;;;;3.90;2.90;;;;;;;20.04;58.16;97364.48;127018;1093;62689;-61
2021/08/11 05:59:07;;;;;;;3.30;2.83;;;;;;;20.13;57.94;97373.25;126859;1093;62623;-62
2021/08/11 06:01:34;;;;;;;6.40;3.03;;;;;;;20.22;57.70;97364.25;126866;1093;63076;-62
2021/08/11 06:04:01;;;;;;;4.27;3.20;;;;;;;20.32;57.64;97363.03;126893;1095;62625;-61
2021/08/11 06:06:28;;;;;;;4.63;3.20;;;;;;;20.44;57.35;97357.34;126877;1095;62628;-62
2021/08/11 06:08:55;;;;;;;6.07;3.20;;;;;;;20.53;57.20;97356.32;126893;1095;62619;-62
2021/08/11 06:11:23;;;;;;;4.93;2.67;;;;;;;20.65;57.17;97370.83;126923;1095;62658;-62
2021/08/11 06:13:50;;;;;;;3.85;2.65;;;;;;;20.76;56.94;97366.97;126893;1095;62648;-61
2021/08/11 06:16:17;;;;;;;3.77;2.70;;;;;;;20.87;56.76;97363.06;126988;1095;62608;-59
2021/08/11 06:18:44;;;;;;;3.47;2.97;;;;;;;21.00;56.76;97361.45;126967;1095;62708;-62
2021/08/11 06:21:10;;;;;;;5.17;3.10;;;;;;;21.13;56.69;97363.52;126907;1095;62646;-63
2021/08/11 06:23:37;;;;;;;3.97;2.80;;;;;;;21.27;56.80;97369.88;126898;1095;62642;-62
2021/08/11 06:26:05;;;;;;;3.90;2.77;;;;;;;21.41;56.34;97365.63;127023;1093;62636;-63
2021/08/11 06:28:32;;;;;;;3.97;3.40;;;;;;;21.52;56.07;97357.20;126927;1095;62636;-60
2021/08/11 06:30:59;;;;;;;3.70;2.57;;;;;;;21.64;55.67;97361.08;126801;1095;62696;-62
2021/08/11 06:33:26;;;;;;;3.30;2.87;;;;;;;21.75;55.40;97360.61;126888;1095;62572;-61
2021/08/11 06:35:55;;;;;;;4.63;2.83;;;;;;;21.86;55.43;97359.31;126882;1095;62699;-59
2021/08/11 06:38:22;;;;;;;4.60;3.10;;;;;;;22.00;55.02;97370.97;126904;1095;62630;-63
2021/08/11 06:40:49;;;;;;;3.60;2.70;;;;;;;22.09;54.74;97367.20;126921;1094;62639;-62
2021/08/11 06:43:16;;;;;;;4.57;3.03;;;;;;;22.20;54.71;97365.95;126822;1095;62674;-62
2021/08/11 06:45:43;;;;;;;5.27;3.37;;;;;;;22.32;54.55;97364.44;126925;1095;62617;-63
2021/08/11 06:48:11;;;;;;;4.57;3.37;;;;;;;22.45;54.82;97358.45;127034;1093;62626;-63
2021/08/11 06:50:37;;;;;;;4.20;3.23;;;;;;;22.57;54.70;97363.11;127304;1092;62636;-60
2021/08/11 06:53:04;;;;;;;4.60;3.73;;;;;;;22.70;54.42;97362.43;127081;1095;62606;-58
2021/08/11 06:55:31;;;;;;;4.23;3.07;;;;;;;22.84;53.83;97366.05;126874;1095;62607;-60
2021/08/11 06:57:58;;;;;;;4.80;2.70;;;;;;;22.92;53.46;97368.60;126902;1093;62706;-60
2021/08/11 07:00:25;;;;;;;4.33;2.80;;;;;;;23.02;53.28;97365.64;126877;1093;62574;-56
2021/08/11 07:02:52;;;;;;;4.27;2.97;;;;;;;23.13;53.24;97365.12;126909;1095;62642;-56
2021/08/11 07:05:19;;;;;;;4.47;2.80;;;;;;;23.24;52.98;97356.58;126889;1093;62684;-56
2021/08/11 07:07:46;;;;;;;4.67;2.93;;;;;;;23.35;52.93;97363.25;126992;1093;62653;-46
2021/08/11 07:10:14;;;;;;;3.60;2.73;;;;;;;23.44;52.93;97361.27;126943;1093;62764;-55
2021/08/11 07:12:42;;;;;;;3.80;3.03;;;;;;;23.53;52.64;97363.59;127049;1094;62604;-60
2021/08/11 07:15:10;;;;;;;4.63;3.33;;;;;;;23.66;52.49;97362.05;127105;1095;62612;-58
2021/08/11 07:17:48;;;;;;;4.07;3.07;;;;;;;23.75;52.15;97360.88;127068;1095;62607;-57
2021/08/11 07:20:16;;;;;;;4.10;2.85;;;;;;;23.84;51.99;97355.19;127028;1094;62678;-61
2021/08/11 07:22:43;;;;;;;4.13;3.03;;;;;;;23.96;51.67;97359.98;127070;1095;62767;-56
2021/08/11 07:25:10;;;;;;;3.90;3.17;;;;;;;24.05;51.82;97350.79;127003;1095;62623;-59
2021/08/11 07:27:37;;;;;;;3.70;2.90;;;;;;;24.14;51.64;97355.77;127017;1095;62600;-60
2021/08/11 07:30:05;;;;;;;4.00;2.90;;;;;;;24.24;51.45;97350.05;127077;1095;62671;-56
2021/08/11 07:32:32;;;;;;;6.07;2.67;;;;;;;24.35;51.08;97352.13;126968;1095;62616;-58
2021/08/11 07:34:59;;;;;;;4.70;3.00;;;;;;;24.47;51.13;97348.93;127008;1094;62722;-57
2021/08/11 07:37:26;;;;;;;3.93;3.40;;;;;;;24.59;50.88;97352.67;126952;1095;62607;-58
2021/08/11 07:39:54;;;;;;;4.97;2.97;;;;;;;24.69;50.70;97347.77;126920;1095;62671;-58
2021/08/11 07:42:21;;;;;;;4.27;3.30;;;;;;;24.80;50.63;97352.50;127033;1093;63070;-59
2021/08/11 07:44:48;;;;;;;4.37;3.20;;;;;;;24.92;50.40;97357.27;127019;1095;62613;-60
2021/08/11 07:47:15;;;;;;;3.37;2.83;;;;;;;25.03;50.29;97359.32;126898;1095;62712;-55
2021/08/11 07:49:42;;;;;;;3.60;2.57;;;;;;;25.13;50.03;97354.41;126962;1093;63061;-60
2021/08/11 07:52:09;;;;;;;3.70;2.87;;;;;;;25.24;49.84;97353.82;127088;1095;62620;-59
2021/08/11 07:54:36;;;;;;;3.30;2.80;;;;;;;25.33;49.53;97354.44;127033;1093;62609;-54
2021/08/11 07:57:03;;;;;;;3.90;2.83;;;;;;;25.43;49.21;97354.02;126944;1095;62613;-59
2021/08/11 07:59:31;;;;;;;3.70;3.10;;;;;;;25.52;49.04;97355.45;127015;1093;62744;-59
2021/08/11 08:01:58;;;;;;;5.33;2.80;;;;;;;25.60;48.93;97348.00;127058;1095;62611;-60
2021/08/11 08:04:25;;;;;;;5.03;3.60;;;;;;;25.70;48.38;97350.28;126962;1093;62607;-61
2021/08/11 08:06:52;;;;;;;3.80;2.93;;;;;;;25.78;48.38;97342.03;127006;1095;62556;-60
2021/08/11 08:09:18;;;;;;;4.23;2.87;;;;;;;25.88;48.18;97345.13;127003;1093;62622;-60
2021/08/11 08:11:45;;;;;;;3.70;2.50;;;;;;;25.98;47.98;97351.89;127042;1095;62545;-60
2021/08/11 08:14:12;;;;;;;3.47;2.77;;;;;;;26.07;47.74;97348.77;126976;1095;62591;-60
2021/08/11 08:16:39;;;;;;;3.43;3.10;;;;;;;26.18;47.89;97346.46;126920;1095;62639;-59
2021/08/11 08:19:06;;;;;;;3.10;2.77;;;;;;;26.23;47.72;97344.78;127030;1095;62607;-59
2021/08/11 08:21:33;;;;;;;3.20;2.20;;;;;;;26.31;47.15;97344.55;126941;1095;62607;-59
2021/08/11 08:24:00;;;;;;;3.90;3.30;;;;;;;26.39;46.94;97338.95;126921;1093;62717;-60
2021/08/11 08:26:27;;;;;;;4.20;2.90;;;;;;;26.49;46.75;97343.06;126958;1093;62638;-62
2021/08/11 08:28:54;;;;;;;3.80;3.40;;;;;;;26.59;47.00;97327.33;127024;1095;62623;-52
2021/08/11 08:31:21;;;;;;;3.20;2.30;;;;;;;26.69;46.30;97334.91;127008;1095;62574;-48
2021/08/11 08:33:48;;;;;;;4.10;3.07;;;;;;;26.77;46.61;97330.11;126920;1095;62901;-60
2021/08/11 08:36:15;;;;;;;3.23;2.30;;;;;;;26.86;45.72;97334.17;127101;1095;62758;-57
2021/08/11 08:38:42;;;;;;;3.40;2.60;;;;;;;26.97;45.29;97335.33;127041;1095;62607;-58
2021/08/11 08:41:10;;;;;;;4.33;2.37;;;;;;;27.05;45.31;97326.20;126995;1093;62676;-62
2021/08/11 08:43:37;;;;;;;4.23;2.57;;;;;;;27.11;45.07;97328.03;127053;1094;62604;-63
2021/08/11 08:46:04;;;;;;;3.43;2.63;;;;;;;27.19;44.80;97333.13;126993;1095;62598;-59
2021/08/11 08:48:32;;;;;;;3.97;2.80;;;;;;;27.29;44.45;97328.09;126889;1095;62575;-59
2021/08/11 08:50:59;;;;;;;2.87;2.30;;;;;;;27.37;43.68;97330.50;126953;1095;62623;-59
2021/08/11 08:53:26;;;;;;;3.07;2.47;;;;;;;27.48;43.15;97326.27;126728;1095;62665;-58
2021/08/11 08:55:53;;;;;;;2.87;2.37;;;;;;;27.59;42.57;97324.70;126873;1095;62858;-59
2021/08/11 08:58:20;;;;;;;3.00;2.17;;;;;;;27.69;41.96;97333.09;126755;1095;62566;-59
2021/08/11 09:00:47;;;;;;;3.10;2.30;;;;;;;27.77;41.88;97324.75;127010;1095;62617;-58
2021/08/11 09:03:15;;;;;;;3.00;2.10;;;;;;;27.88;41.47;97328.58;126869;1095;62632;-56
2021/08/11 09:05:42;;;;;;;2.83;2.00;;;;;;;27.96;41.38;97327.45;127048;1095;62615;-57
2021/08/11 09:08:09;;;;;;;3.23;2.40;;;;;;;28.04;41.05;97327.16;126912;1095;62581;-60
2021/08/11 09:10:38;;;;;;;4.07;2.03;;;;;;;28.11;40.61;97330.59;127058;1095;62584;-58
2021/08/11 09:13:13;;;;;;;2.87;2.60;;;;;;;28.19;40.46;97322.20;127022;1095;62617;-59
2021/08/11 09:15:41;;;;;;;2.90;2.30;;;;;;;28.27;40.53;97323.77;126926;1095;62595;-59
2021/08/11 09:18:24;;;;;;;2.23;1.85;;;;;;;28.34;40.36;97320.00;126977;1095;62636;-59
2021/08/11 09:21:03;;;;;;;2.77;1.93;;;;;;;28.41;39.93;97323.40;126904;1095;62678;-60
2021/08/11 09:23:35;;;;;;;3.20;2.30;;;;;;;28.51;39.72;97322.85;126986;1095;62566;-58
2021/08/11 09:26:06;;;;;;;3.30;2.30;;;;;;;28.57;39.44;97319.27;127061;1095;62617;-58
2021/08/11 09:28:34;;;;;;;3.20;1.97;;;;;;;28.66;39.10;97319.77;127061;1095;62632;-59
2021/08/11 09:31:36;;;;;;;2.73;2.10;;;;;;;28.73;38.96;97325.05;127115;1095;62612;-60
2021/08/11 09:34:06;;;;;;;2.87;2.10;;;;;;;28.84;38.96;97319.72;126876;1093;62627;-60
2021/08/11 09:36:48;;;;;;;2.70;2.00;;;;;;;28.92;38.54;97327.43;126907;1095;62627;-60
2021/08/11 09:39:16;;;;;;;3.03;2.10;;;;;;;29.01;38.19;97329.83;126888;1095;62584;-60
2021/08/11 09:42:03;;;;;;;3.30;2.30;;;;;;;29.06;38.10;97328.08;127344;1095;62632;-61
2021/08/11 09:44:30;;;;;;;2.53;2.10;;;;;;;29.14;37.77;97332.31;126906;1095;62553;-59
2021/08/11 09:47:13;;;;;;;3.27;2.03;;;;;;;29.19;37.73;97329.74;126882;1095;62626;-59
2021/08/11 09:49:40;;;;;;;3.47;2.13;;;;;;;29.26;37.46;97332.31;126932;1093;63013;-60
2021/08/11 09:52:07;;;;;;;2.00;1.80;;;;;;;29.30;37.00;97328.10;126925;1095;62675;-59
2021/08/11 09:54:34;;;;;;;2.30;1.73;;;;;;;29.35;37.10;97326.38;126859;1093;62607;-59
2021/08/11 09:57:01;;;;;;;3.25;2.15;;;;;;;29.42;36.71;97323.55;126630;1094;62616;-60
2021/08/11 09:59:28;;;;;;;2.70;2.00;;;;;;;29.47;36.28;97329.06;126956;1095;62626;-58
2021/08/11 10:02:14;;;;;;;2.47;2.17;;;;;;;29.54;36.22;97334.34;126878;1095;62606;-58
2021/08/11 10:04:41;;;;;;;3.47;2.37;;;;;;;29.61;36.16;97333.19;126958;1095;63013;-58
2021/08/11 10:07:08;;;;;;;3.13;1.90;;;;;;;29.69;35.83;97329.33;126959;1094;62588;-54
2021/08/11 10:09:35;;;;;;;2.40;2.00;;;;;;;29.76;35.91;97330.00;126655;1095;62661;-49
2021/08/11 10:12:03;;;;;;;2.87;2.03;;;;;;;29.83;35.85;97333.41;127005;1095;63065;-58
2021/08/11 10:14:31;;;;;;;2.20;1.80;;;;;;;29.89;35.81;97318.98;126987;1093;62615;-58
2021/08/11 10:16:59;;;;;;;2.80;1.83;;;;;;;29.99;35.44;97325.64;126988;1095;62626;-60
2021/08/11 10:19:30;;;;;;;2.60;1.97;;;;;;;30.06;35.36;97329.04;127105;1095;62671;-58
2021/08/11 10:22:05;;;;;;;2.80;2.00;;;;;;;30.15;35.37;97330.34;126947;1093;62575;-61
2021/08/11 10:24:32;;;;;;;3.00;1.70;;;;;;;30.22;35.17;97327.50;126989;1095;62607;-58
2021/08/11 10:26:59;;;;;;;2.60;1.87;;;;;;;30.30;34.75;97335.21;126943;1093;62601;-60
2021/08/11 10:29:26;;;;;;;2.47;1.97;;;;;;;30.35;34.54;97336.13;127093;1095;62761;-54
2021/08/11 10:31:54;;;;;;;3.00;1.95;;;;;;;30.41;34.38;97326.25;126776;1095;62664;-56
2021/08/11 10:34:22;;;;;;;2.07;1.57;;;;;;;30.47;34.31;97324.50;127016;1095;62615;-55
2021/08/11 10:36:49;;;;;;;2.30;1.70;;;;;;;30.52;34.08;97317.31;126816;1095;62663;-56
2021/08/11 10:39:16;;;;;;;2.60;1.70;;;;;;;30.60;33.85;97324.18;127022;1095;62600;-50
2021/08/11 10:41:43;;;;;;;2.63;2.13;;;;;;;30.65;33.83;97325.12;126959;1095;62695;-56
2021/08/11 10:44:21;;;;;;;2.55;1.95;;;;;;;30.71;33.83;97311.72;126704;1095;62669;-49
2021/08/11 10:46:55;;;;;;;2.50;1.90;;;;;;;30.76;33.57;97320.75;126862;1093;62595;-54
2021/08/11 10:49:24;;;;;;;3.03;2.70;;;;;;;30.83;33.02;97321.42;126946;1095;62636;-52
2021/08/11 10:51:54;;;;;;;2.47;1.90;;;;;;;30.88;32.75;97316.11;126858;1095;62586;-50
2021/08/11 10:54:21;;;;;;;2.65;2.05;;;;;;;30.97;32.78;97315.69;127077;1095;63252;-53
2021/08/11 10:56:50;;;;;;;2.40;1.80;;;;;;;31.02;32.63;97318.50;126877;1095;62658;-50
2021/08/11 10:59:24;;;;;;;2.80;1.87;;;;;;;31.10;32.53;97318.08;126869;1095;62661;-53
2021/08/11 11:01:52;;;;;;;2.07;1.87;;;;;;;31.17;32.34;97307.95;126909;1095;62590;-55
2021/08/11 11:04:42;;;;;;;3.03;1.80;;;;;;;31.23;32.04;97301.55;126940;1095;62613;-58
2021/08/11 11:07:10;;;;;;;2.03;1.73;;;;;;;31.34;31.94;97306.09;127025;1095;62712;-60
2021/08/11 11:09:41;;;;;;;2.30;1.95;;;;;;;31.43;31.85;97303.77;126974;1093;62590;-50
2021/08/11 11:12:19;;;;;;;3.25;1.85;;;;;;;31.51;31.62;97303.36;126885;1095;62588;-52
2021/08/11 11:14:55;;;;;;;3.23;1.80;;;;;;;31.62;31.47;97304.34;126882;1095;62607;-49
2021/08/11 11:17:23;;;;;;;2.30;1.67;;;;;;;31.72;31.12;97295.55;126892;1095;62616;-54
2021/08/11 11:20:08;;;;;;;2.65;2.05;;;;;;;31.79;31.38;97298.88;126856;1094;62699;-59
2021/08/11 11:22:56;;;;;;;2.75;1.80;;;;;;;31.85;31.42;97290.64;126855;1095;62854;-55
2021/08/11 11:25:58;;;;;;;2.07;1.87;;;;;;;31.92;31.21;97291.25;126890;1095;62674;-56
2021/08/11 11:28:52;;;;;;;3.87;2.03;;;;;;;31.99;31.24;97284.86;127010;1095;62620;-57
2021/08/11 11:31:51;;;;;;;2.27;1.70;;;;;;;32.04;30.96;97283.03;127042;1095;62652;-59
2021/08/11 11:34:18;;;;;;;2.00;1.80;;;;;;;32.13;30.99;97291.52;127050;1095;63089;-53
2021/08/11 11:36:55;;;;;;;2.10;1.70;;;;;;;32.17;30.69;97285.36;127069;1095;62681;-55